createdAt,value
2023-01-04T00:02:04.147Z,101243.97
2023-01-04T00:04:32.720Z,101247.56
2023-01-04T00:07:00.898Z,101246.16
2023-01-04T00:09:29.434Z,101235.69
2023-01-04T00:11:58.378Z,101235.44
2023-01-04T00:14:26.852Z,101222.44
2023-01-04T00:16:54.934Z,101215.78
2023-01-04T00:19:23.156Z,101207.25
2023-01-04T00:21:51.421Z,101217.25
2023-01-04T00:24:19.925Z,101212.09
2023-01-04T00:26:48.442Z,101206.81
2023-01-04T00:29:16.552Z,101196.84
2023-01-04T00:31:45.639Z,101196.25
2023-01-04T00:34:17.413Z,101200.84
2023-01-04T00:36:46.625Z,101195.53
2023-01-04T00:39:16.823Z,101184.47
2023-01-04T00:41:59.859Z,101180.00
2023-01-04T00:44:29.806Z,101166.94
2023-01-04T00:46:58.055Z,101165.94
2023-01-04T00:49:27.117Z,101162.22
2023-01-04T00:51:56.290Z,101153.81
2023-01-04T00:54:25.286Z,101155.34
2023-01-04T00:56:53.843Z,101149.25
2023-01-04T00:59:23.238Z,101148.25
2023-01-04T01:01:52.724Z,101141.81
2023-01-04T01:04:24.269Z,101143.34
2023-01-04T01:06:53.796Z,101144.19
2023-01-04T01:09:23.864Z,101147.91
2023-01-04T01:11:54.132Z,101136.63
2023-01-04T01:14:26.975Z,101138.56
2023-01-04T01:16:57.721Z,101133.28
2023-01-04T01:19:30.811Z,101137.00
2023-01-04T01:21:59.484Z,101135.59
2023-01-04T01:24:28.711Z,101130.41
2023-01-04T01:26:57.252Z,101130.41
2023-01-04T01:29:26.313Z,101133.88
2023-01-04T01:31:54.605Z,101117.06
2023-01-04T01:34:23.033Z,101118.47
2023-01-04T01:36:51.157Z,101117.50
2023-01-04T01:39:19.375Z,101115.22
2023-01-04T01:41:47.534Z,101103.81
2023-01-04T01:44:34.449Z,101104.53
2023-01-04T01:47:03.260Z,101099.13
2023-01-04T01:49:38.539Z,101086.59
2023-01-04T01:52:13.808Z,101082.84
2023-01-04T01:54:47.591Z,101081.31
2023-01-04T01:57:21.470Z,101083.94
2023-01-04T01:59:54.630Z,101086.59
2023-01-04T02:02:23.358Z,101082.00
2023-01-04T02:04:52.635Z,101079.34
2023-01-04T02:07:27.946Z,101073.00
2023-01-04T02:09:57.717Z,101075.25
2023-01-04T02:12:27.292Z,101069.94
2023-01-04T02:14:55.610Z,101074.28
2023-01-04T02:18:00.315Z,101071.50
2023-01-04T02:21:02.937Z,101061.03
2023-01-04T02:24:05.536Z,101059.34
2023-01-04T02:27:02.082Z,101059.34
2023-01-04T02:30:10.303Z,101045.16
2023-01-04T02:33:00.385Z,101038.75
2023-01-04T02:35:37.150Z,101038.66
2023-01-04T02:38:25.645Z,101039.16
2023-01-04T02:41:30.497Z,101033.53
2023-01-04T02:44:30.623Z,101024.16
2023-01-04T02:47:08.686Z,101014.81
2023-01-04T02:49:57.889Z,101005.19
2023-01-04T02:52:30.696Z,101003.13
2023-01-04T02:54:59.376Z,101002.41
2023-01-04T02:57:54.562Z,100995.84
2023-01-04T03:00:58.283Z,100991.13
2023-01-04T03:03:56.294Z,100988.16
2023-01-04T03:06:44.873Z,100988.28
2023-01-04T03:09:26.420Z,100979.63
2023-01-04T03:12:38.681Z,100969.03
2023-01-04T03:15:28.012Z,100959.56
2023-01-04T03:18:36.535Z,100959.56
2023-01-04T03:21:06.344Z,100954.25
2023-01-04T03:23:55.694Z,100943.69
2023-01-04T03:26:49.574Z,100943.09
2023-01-04T03:29:53.623Z,100939.75
2023-01-04T03:32:51.497Z,100945.84
2023-01-04T03:35:28.342Z,100943.22
2023-01-04T03:38:15.051Z,100933.63
2023-01-04T03:41:22.404Z,100929.56
2023-01-04T03:44:39.476Z,100919.53
2023-01-04T03:47:33.716Z,100913.69
2023-01-04T03:50:30.660Z,100904.38
2023-01-04T03:53:00.338Z,100894.63
2023-01-04T03:55:30.662Z,100886.69
2023-01-04T03:57:59.784Z,100876.38
2023-01-04T04:00:28.473Z,100872.06
2023-01-04T04:03:07.739Z,100858.72
2023-01-04T04:05:58.961Z,100855.56
2023-01-04T04:08:30.472Z,100858.19
2023-01-04T04:11:30.245Z,100845.50
2023-01-04T04:13:58.788Z,100827.28
2023-01-04T04:16:28.759Z,100839.13
2023-01-04T04:18:57.547Z,100842.81
2023-01-04T04:24:20.775Z,100831.66
2023-01-04T04:26:49.242Z,100828.56
2023-01-04T04:29:17.885Z,100819.53
2023-01-04T04:31:46.341Z,100812.84
2023-01-04T04:34:15.027Z,100813.69
2023-01-04T04:36:43.548Z,100809.91
2023-01-04T04:39:13.080Z,100803.66
2023-01-04T04:41:41.686Z,100799.19
2023-01-04T04:44:21.953Z,100803.38
2023-01-04T04:46:51.015Z,100788.84
2023-01-04T04:49:19.561Z,100791.22
2023-01-04T04:51:48.887Z,100790.81
2023-01-04T04:54:22.426Z,100785.25
2023-01-04T04:56:51.470Z,100785.81
2023-01-04T04:59:20.006Z,100777.47
2023-01-04T05:01:48.312Z,100776.22
2023-01-04T05:04:19.460Z,100763.81
2023-01-04T05:06:50.269Z,100749.91
2023-01-04T05:09:18.844Z,100740.84
2023-01-04T05:12:04.356Z,100745.28
2023-01-04T05:14:32.569Z,100737.78
2023-01-04T05:17:01.538Z,100741.38
2023-01-04T05:19:29.818Z,100733.28
2023-01-04T05:21:58.278Z,100723.25
2023-01-04T05:24:26.893Z,100725.63
2023-01-04T05:26:55.087Z,100724.53
2023-01-04T05:29:40.421Z,100717.16
2023-01-04T05:32:08.949Z,100726.34
2023-01-04T05:34:37.266Z,100710.44
2023-01-04T05:37:05.327Z,100705.84
2023-01-04T05:39:33.438Z,100698.72
2023-01-04T05:42:18.711Z,100700.97
2023-01-04T05:44:47.152Z,100691.03
2023-01-04T05:47:15.689Z,100687.97
2023-01-04T05:49:44.475Z,100684.31
2023-01-04T05:52:12.978Z,100675.94
2023-01-04T05:54:41.523Z,100676.47
2023-01-04T05:57:10.694Z,100684.13
2023-01-04T05:59:42.083Z,100680.91
2023-01-04T06:02:18.512Z,100676.41
2023-01-04T06:04:48.473Z,100683.50
2023-01-04T06:07:20.145Z,100683.66
2023-01-04T06:09:48.359Z,100691.03
2023-01-04T06:12:16.676Z,100679.56
2023-01-04T06:14:45.133Z,100679.16
2023-01-04T06:17:13.536Z,100664.03
2023-01-04T06:19:41.884Z,100666.25
2023-01-04T06:22:10.315Z,100653.69
2023-01-04T06:24:38.831Z,100658.25
2023-01-04T06:27:07.018Z,100655.84
2023-01-04T06:29:35.480Z,100655.31
2023-01-04T06:32:03.652Z,100653.88
2023-01-04T06:34:31.785Z,100654.56
2023-01-04T06:37:00.324Z,100639.09
2023-01-04T06:39:29.164Z,100644.38
2023-01-04T06:42:03.920Z,100640.22
2023-01-04T06:44:34.944Z,100630.44
2023-01-04T06:47:03.398Z,100621.41
2023-01-04T06:49:31.803Z,100616.28
2023-01-04T06:52:00.379Z,100611.16
2023-01-04T06:54:29.721Z,100606.22
2023-01-04T06:56:58.214Z,100597.72
2023-01-04T06:59:26.589Z,100593.84
2023-01-04T07:01:55.094Z,100590.53
2023-01-04T07:04:23.647Z,100584.50
2023-01-04T07:06:55.816Z,100576.19
2023-01-04T07:09:24.345Z,100580.63
2023-01-04T07:11:52.868Z,100576.78
2023-01-04T07:14:21.290Z,100573.97
2023-01-04T07:16:49.822Z,100565.47
2023-01-04T07:19:18.386Z,100568.28
2023-01-04T07:21:46.896Z,100564.53
2023-01-04T07:24:15.028Z,100566.22
2023-01-04T07:26:43.016Z,100565.75
2023-01-04T07:29:17.238Z,100562.00
2023-01-04T07:31:51.033Z,100566.28
2023-01-04T07:34:22.058Z,100570.94
2023-01-04T07:36:50.813Z,100572.91
2023-01-04T07:39:20.609Z,100578.03
2023-01-04T07:41:49.700Z,100573.66
2023-01-04T07:44:18.773Z,100572.38
2023-01-04T07:46:46.991Z,100568.75
2023-01-04T07:49:18.533Z,100571.72
2023-01-04T07:51:49.032Z,100565.88
2023-01-04T07:54:18.448Z,100557.06
2023-01-04T07:56:48.203Z,100558.03
2023-01-04T07:59:18.559Z,100551.09
2023-01-04T08:01:47.000Z,100548.75
2023-01-04T08:04:17.039Z,100540.25
2023-01-04T08:06:47.329Z,100546.09
2023-01-04T08:09:15.839Z,100542.91
2023-01-04T08:11:44.280Z,100534.09
2023-01-04T08:14:13.434Z,100530.75
2023-01-04T08:16:43.509Z,100528.94
2023-01-04T08:19:18.550Z,100513.44
2023-01-04T08:21:47.399Z,100498.72
2023-01-04T08:24:18.930Z,100479.72
2023-01-04T08:26:48.278Z,100468.41
2023-01-04T08:29:16.681Z,100480.16
2023-01-04T08:31:45.220Z,100480.72
2023-01-04T08:34:13.290Z,100466.31
2023-01-04T08:36:53.342Z,100446.78
2023-01-04T08:39:21.899Z,100449.56
2023-01-04T08:41:59.706Z,100448.91
2023-01-04T08:44:35.118Z,100487.00
2023-01-04T08:47:03.775Z,100519.81
2023-01-04T08:49:31.989Z,100501.25
2023-01-04T08:52:00.481Z,100485.50
2023-01-04T08:54:30.900Z,100488.81
2023-01-04T08:56:58.890Z,100486.31
2023-01-04T08:59:27.436Z,100471.22
2023-01-04T09:02:02.712Z,100464.13
2023-01-04T09:04:33.569Z,100474.06
2023-01-04T09:07:02.094Z,100488.38
2023-01-04T09:09:31.358Z,100481.31
2023-01-04T09:12:00.745Z,100455.78
2023-01-04T09:14:29.174Z,100463.28
2023-01-04T09:16:57.659Z,100450.53
2023-01-04T09:19:26.164Z,100454.41
2023-01-04T09:21:54.648Z,100448.13
2023-01-04T09:24:23.201Z,100451.75
2023-01-04T09:26:51.706Z,100448.78
2023-01-04T09:29:19.963Z,100444.88
2023-01-04T09:31:48.726Z,100450.41
2023-01-04T09:34:18.102Z,100451.75
2023-01-04T09:36:48.458Z,100440.97
2023-01-04T09:39:23.130Z,100453.41
2023-01-04T09:41:56.918Z,100443.84
2023-01-04T09:47:52.976Z,100452.03
2023-01-04T09:50:31.906Z,100456.69
2023-01-04T09:53:40.515Z,100442.00
2023-01-04T09:56:34.735Z,100436.81
2023-01-04T09:59:09.475Z,100441.28
2023-01-04T10:01:51.114Z,100445.19
2023-01-04T10:04:30.311Z,100443.00
2023-01-04T10:07:04.696Z,100432.03
2023-01-04T10:09:33.591Z,100428.53
2023-01-04T10:12:44.510Z,100426.28
2023-01-04T10:15:33.880Z,100421.81
2023-01-04T10:19:23.901Z,100412.34
2023-01-04T10:21:48.893Z,100411.00
2023-01-04T10:24:51.321Z,100405.81
2023-01-04T10:28:01.313Z,100403.88
2023-01-04T10:31:41.042Z,100398.69
2023-01-04T10:34:19.165Z,100396.72
2023-01-04T10:36:48.944Z,100390.09
2023-01-04T10:39:30.234Z,100371.34
2023-01-04T10:42:31.541Z,100356.59
2023-01-04T10:45:24.370Z,100358.25
2023-01-04T10:48:28.821Z,100350.63
2023-01-04T10:51:36.493Z,100346.81
2023-01-04T10:54:40.875Z,100337.00
2023-01-04T10:57:35.356Z,100333.72
2023-01-04T11:00:08.805Z,100331.69
2023-01-04T11:03:04.756Z,100315.91
2023-01-04T11:05:56.409Z,100317.06
2023-01-04T11:09:06.717Z,100319.91
2023-01-04T11:11:47.983Z,100323.03
2023-01-04T11:14:16.556Z,100314.41
2023-01-04T11:16:50.007Z,100306.75
2023-01-04T11:19:18.538Z,100292.63
2023-01-04T11:22:05.983Z,100281.88
2023-01-04T11:24:35.805Z,100278.38
2023-01-04T11:27:26.858Z,100264.13
2023-01-04T11:30:27.392Z,100253.00
2023-01-04T11:33:15.069Z,100247.84
2023-01-04T11:36:03.353Z,100238.38
2023-01-04T11:38:31.881Z,100249.97
2023-01-04T11:41:05.767Z,100232.41
2023-01-04T11:43:36.958Z,100242.13
2023-01-04T11:46:19.026Z,100231.19
2023-01-04T11:48:48.698Z,100235.97
2023-01-04T11:51:26.481Z,100228.34
2023-01-04T11:54:16.155Z,100228.66
2023-01-04T11:57:10.706Z,100214.06
2023-01-04T11:59:39.704Z,100219.22
2023-01-04T12:02:58.642Z,100218.56
2023-01-04T12:05:30.067Z,100218.38
2023-01-04T12:08:00.123Z,100227.50
2023-01-04T12:10:29.945Z,100226.34
2023-01-04T12:13:03.513Z,100222.72
2023-01-04T12:16:33.282Z,100219.88
2023-01-04T12:19:01.687Z,100224.56
2023-01-04T12:21:30.087Z,100218.13
2023-01-04T12:23:58.851Z,100220.94
2023-01-04T12:26:27.336Z,100217.28
2023-01-04T12:29:23.361Z,100197.38
2023-01-04T12:31:53.735Z,100201.69
2023-01-04T12:34:26.065Z,100204.84
2023-01-04T12:36:57.530Z,100190.09
2023-01-04T12:39:47.507Z,100207.72
2023-01-04T12:42:17.897Z,100186.44
2023-01-04T12:44:46.870Z,100200.41
2023-01-04T12:47:38.064Z,100182.97
2023-01-04T12:50:27.652Z,100189.13
2023-01-04T12:53:19.882Z,100198.88
2023-01-04T12:55:54.733Z,100188.75
2023-01-04T12:58:51.159Z,100182.81
2023-01-04T13:01:29.370Z,100162.84
2023-01-04T13:04:06.018Z,100165.00
2023-01-04T13:06:44.076Z,100148.38
2023-01-04T13:09:25.328Z,100164.81
2023-01-04T13:12:24.253Z,100157.63
2023-01-04T13:14:59.942Z,100149.50
2023-01-04T13:17:29.081Z,100140.69
2023-01-04T13:19:57.186Z,100128.88
2023-01-04T13:22:31.051Z,100118.91
2023-01-04T13:25:03.335Z,100117.03
2023-01-04T13:27:31.739Z,100122.84
2023-01-04T13:29:59.800Z,100118.53
2023-01-04T13:32:30.954Z,100112.72
2023-01-04T13:35:06.863Z,100094.78
2023-01-04T13:37:42.359Z,100100.44
2023-01-04T13:40:29.594Z,100098.91
2023-01-04T13:43:25.787Z,100085.25
2023-01-04T13:46:14.645Z,100072.25
2023-01-04T13:48:47.716Z,100069.59
2023-01-04T13:51:30.587Z,100062.94
2023-01-04T13:54:07.773Z,100063.91
2023-01-04T13:56:36.746Z,100067.22
2023-01-04T13:59:04.902Z,100064.88
2023-01-04T14:01:46.859Z,100082.19
2023-01-04T14:04:30.120Z,100073.31
2023-01-04T14:07:00.984Z,100077.97
2023-01-04T14:09:44.460Z,100068.34
2023-01-04T14:12:19.118Z,100062.97
2023-01-04T14:14:58.079Z,100071.44
2023-01-04T14:17:36.327Z,100064.19
2023-01-04T14:20:14.645Z,100058.03
2023-01-04T14:22:46.053Z,100062.38
2023-01-04T14:25:32.744Z,100043.53
2023-01-04T14:28:27.686Z,100049.88
2023-01-04T14:31:00.329Z,100051.06
2023-01-04T14:33:52.262Z,100047.44
2023-01-04T14:36:30.524Z,100025.53
2023-01-04T14:39:07.181Z,100037.56
2023-01-04T14:41:44.657Z,100028.59
2023-01-04T14:44:22.181Z,100030.50
2023-01-04T14:46:54.021Z,100031.81
2023-01-04T14:49:23.149Z,100029.59
2023-01-04T14:52:03.011Z,100034.56
2023-01-04T14:54:33.617Z,100030.44
2023-01-04T14:57:02.105Z,100020.78
2023-01-04T14:59:30.191Z,100018.31
2023-01-04T15:01:59.407Z,100015.44
2023-01-04T15:04:27.950Z,100012.47
2023-01-04T15:07:01.711Z,100024.63
2023-01-04T15:09:30.840Z,100027.59
2023-01-04T15:11:59.089Z,100021.94
2023-01-04T15:14:27.712Z,100021.59
2023-01-04T15:16:55.887Z,100010.97
2023-01-04T15:19:23.975Z,100001.97
2023-01-04T15:21:52.128Z,99995.13
2023-01-04T15:24:20.142Z,99996.81
2023-01-04T15:26:49.146Z,99993.28
2023-01-04T15:29:17.576Z,100000.56
2023-01-04T15:31:46.112Z,100008.53
2023-01-04T15:34:16.896Z,100008.59
2023-01-04T15:36:45.513Z,100011.38
2023-01-04T15:39:15.592Z,100003.63
2023-01-04T15:42:01.622Z,99991.44
2023-01-04T15:44:30.048Z,100002.13
2023-01-04T15:46:59.590Z,99987.97
2023-01-04T15:49:30.070Z,99970.63
2023-01-04T15:51:58.657Z,99948.16
2023-01-04T15:54:30.576Z,99959.19
2023-01-04T15:56:59.313Z,99960.38
2023-01-04T15:59:27.974Z,99940.53
2023-01-04T16:01:56.573Z,99943.97
2023-01-04T16:04:25.748Z,99945.72
2023-01-04T16:06:54.208Z,99939.19
2023-01-04T16:09:22.898Z,99919.56
2023-01-04T16:12:09.062Z,99925.72
2023-01-04T16:14:37.519Z,99929.84
2023-01-04T16:17:05.776Z,99937.19
2023-01-04T16:19:34.456Z,99945.09
2023-01-04T16:22:03.021Z,99936.63
2023-01-04T16:25:09.477Z,99923.47
2023-01-04T16:27:19.768Z,99941.13
2023-01-04T16:29:48.061Z,99931.19
2023-01-04T16:32:16.635Z,99934.03
2023-01-04T16:34:44.732Z,99925.03
2023-01-04T16:37:12.848Z,99921.38
2023-01-04T16:42:29.317Z,99905.41
2023-01-04T16:44:58.101Z,99903.28
2023-01-04T16:47:26.201Z,99904.09
2023-01-04T16:49:54.779Z,99913.91
2023-01-04T16:52:27.112Z,99899.25
2023-01-04T16:54:55.172Z,99888.22
2023-01-04T16:57:24.007Z,99891.81
2023-01-04T16:59:52.427Z,99887.97
2023-01-04T17:02:21.450Z,99886.88
2023-01-04T17:04:55.324Z,99880.50
2023-01-04T17:07:23.796Z,99882.00
2023-01-04T17:09:52.201Z,99875.94
2023-01-04T17:17:59.685Z,99869.50
2023-01-04T17:20:28.100Z,99873.84
2023-01-04T17:22:56.110Z,99875.75
2023-01-04T17:25:24.170Z,99883.75
2023-01-04T17:27:52.584Z,99889.19
2023-01-04T17:30:21.006Z,99885.31
2023-01-04T17:32:49.444Z,99867.28
2023-01-04T17:35:17.931Z,99863.00
2023-01-04T17:37:45.912Z,99855.84
2023-01-04T17:40:20.646Z,99860.59
2023-01-04T17:42:50.792Z,99855.09
2023-01-04T17:45:18.897Z,99844.44
2023-01-04T17:47:47.369Z,99846.44
2023-01-04T17:50:15.977Z,99852.59
2023-01-04T17:52:43.969Z,99854.44
2023-01-04T17:55:12.332Z,99852.13
2023-01-04T18:00:17.750Z,99839.72
2023-01-04T18:02:45.955Z,99830.53
2023-01-04T18:08:08.632Z,99829.91
2023-01-04T18:10:57.159Z,99820.44
2023-01-04T18:13:25.565Z,99818.16
2023-01-04T18:16:18.231Z,99818.50
2023-01-04T18:18:42.036Z,99812.31
2023-01-04T18:21:28.028Z,99794.56
2023-01-04T18:29:34.907Z,99797.63
2023-01-04T18:32:03.514Z,99789.06
2023-01-04T18:34:32.004Z,99785.56
2023-01-04T18:37:00.180Z,99773.56
2023-01-04T18:39:28.894Z,99770.09
2023-01-04T18:41:56.977Z,99773.78
2023-01-04T18:44:34.530Z,99770.72
2023-01-04T18:47:04.528Z,99764.63
2023-01-04T18:49:33.146Z,99775.38
2023-01-04T18:52:01.792Z,99774.03
2023-01-04T18:54:30.475Z,99770.81
2023-01-04T18:57:01.266Z,99760.38
2023-01-04T18:59:31.124Z,99768.03
2023-01-04T19:02:01.567Z,99758.81
2023-01-04T19:04:36.171Z,99746.31
2023-01-04T19:07:04.785Z,99726.44
2023-01-04T19:09:33.392Z,99763.44
2023-01-04T19:12:02.199Z,99764.06
2023-01-04T19:14:30.327Z,99781.72
2023-01-04T19:16:58.445Z,99784.34
2023-01-04T19:19:26.659Z,99777.72
2023-01-04T19:21:55.346Z,99773.44
2023-01-04T19:24:23.533Z,99779.63
2023-01-04T19:26:52.432Z,99776.78
2023-01-04T19:29:21.085Z,99773.91
2023-01-04T19:31:49.667Z,99764.72
2023-01-04T19:34:18.048Z,99769.00
2023-01-04T19:36:46.177Z,99763.28
2023-01-04T19:39:14.654Z,99773.97
2023-01-04T19:41:42.792Z,99760.63
2023-01-04T19:44:14.523Z,99761.47
2023-01-04T19:46:42.886Z,99762.91
2023-01-04T19:49:15.269Z,99759.22
2023-01-04T19:51:46.411Z,99746.91
2023-01-04T19:54:19.924Z,99758.94
2023-01-04T19:56:51.473Z,99750.09
2023-01-04T19:59:19.981Z,99758.59
2023-01-04T20:01:48.622Z,99754.25
2023-01-04T20:04:16.813Z,99756.56
2023-01-04T20:06:45.438Z,99749.16
2023-01-04T20:09:13.672Z,99768.44
2023-01-04T20:11:42.044Z,99757.28
2023-01-04T20:14:10.530Z,99766.03
2023-01-04T20:16:38.791Z,99765.84
2023-01-04T20:19:07.247Z,99758.66
2023-01-04T20:21:35.883Z,99759.69
2023-01-04T20:24:04.411Z,99746.72
2023-01-04T20:26:32.937Z,99738.72
2023-01-04T20:29:01.787Z,99741.56
2023-01-04T20:31:30.461Z,99727.16
2023-01-04T20:33:59.017Z,99721.66
2023-01-04T20:36:29.359Z,99725.16
2023-01-04T20:38:59.536Z,99713.06
2023-01-04T20:41:31.782Z,99725.25
2023-01-04T20:43:59.953Z,99717.81
2023-01-04T20:46:32.727Z,99725.00
2023-01-04T20:49:02.371Z,99713.31
2023-01-04T20:51:31.725Z,99708.63
2023-01-04T20:54:00.816Z,99699.88
2023-01-04T20:56:32.461Z,99704.03
2023-01-04T20:59:00.923Z,99697.25
2023-01-04T21:01:29.235Z,99694.63
2023-01-04T21:03:57.493Z,99674.72
2023-01-04T21:06:25.901Z,99669.00
2023-01-04T21:08:55.258Z,99684.25
2023-01-04T21:11:23.891Z,99679.72
2023-01-04T21:13:53.227Z,99658.22
2023-01-04T21:16:21.785Z,99662.72
2023-01-04T21:18:50.259Z,99682.59
2023-01-04T21:21:20.160Z,99674.41
2023-01-04T21:23:56.114Z,99678.16
2023-01-04T21:26:26.325Z,99662.34
2023-01-04T21:28:54.473Z,99674.50
2023-01-04T21:31:26.097Z,99679.22
2023-01-04T21:33:55.716Z,99665.28
2023-01-04T21:36:29.150Z,99660.75
2023-01-04T21:38:59.783Z,99665.69
2023-01-04T21:41:28.502Z,99663.41
2023-01-04T21:43:59.393Z,99664.88
2023-01-04T21:46:29.471Z,99657.72
2023-01-04T21:49:01.901Z,99653.13
2023-01-04T21:51:32.103Z,99664.47
2023-01-04T21:54:01.685Z,99655.19
2023-01-04T21:56:31.512Z,99658.94
2023-01-04T21:59:00.012Z,99665.75
2023-01-04T22:01:34.493Z,99675.38
2023-01-04T22:04:04.468Z,99677.22
2023-01-04T22:06:33.255Z,99700.00
2023-01-04T22:09:01.386Z,99682.78
2023-01-04T22:11:29.927Z,99664.91
2023-01-04T22:13:58.500Z,99660.78
2023-01-04T22:16:26.711Z,99681.31
2023-01-04T22:18:55.297Z,99658.94
2023-01-04T22:21:24.818Z,99662.84
2023-01-04T22:23:53.568Z,99664.25
2023-01-04T22:26:22.120Z,99665.91
2023-01-04T22:28:52.706Z,99672.88
2023-01-04T22:31:21.175Z,99678.00
2023-01-04T22:33:49.330Z,99669.38
2023-01-04T22:36:22.895Z,99673.69
2023-01-04T22:38:53.394Z,99674.91
2023-01-04T22:41:27.804Z,99669.34
2023-01-04T22:44:05.712Z,99690.31
2023-01-04T22:46:36.507Z,99684.19
2023-01-04T22:49:05.015Z,99692.59
2023-01-04T22:51:33.577Z,99681.91
2023-01-04T22:54:05.621Z,99694.84
2023-01-04T22:56:34.629Z,99686.41
2023-01-04T22:59:03.247Z,99685.16
2023-01-04T23:01:34.541Z,99680.84
2023-01-04T23:04:03.710Z,99684.53
2023-01-04T23:06:35.623Z,99681.44
2023-01-04T23:09:08.778Z,99680.56
2023-01-04T23:11:41.141Z,99674.03
2023-01-04T23:14:14.480Z,99663.59
2023-01-04T23:16:42.694Z,99680.44
2023-01-04T23:19:13.547Z,99670.41
2023-01-04T23:21:42.388Z,99683.09
2023-01-04T23:24:15.992Z,99670.31
2023-01-04T23:26:47.220Z,99670.94
2023-01-04T23:29:15.781Z,99669.47
2023-01-04T23:31:44.317Z,99665.34
2023-01-04T23:34:14.369Z,99664.78
2023-01-04T23:36:43.989Z,99665.38
2023-01-04T23:39:17.277Z,99666.66
2023-01-04T23:41:45.837Z,99654.97
2023-01-04T23:44:31.004Z,99664.19
2023-01-04T23:47:06.250Z,99659.91
2023-01-04T23:49:38.104Z,99655.34
2023-01-04T23:52:07.102Z,99661.53
2023-01-04T23:54:35.991Z,99648.16
2023-01-04T23:57:04.561Z,99665.84
2023-01-04T23:59:33.087Z,99663.53
